createdAt,value
2019-04-06T00:01:58.472Z,98296.63
2019-04-06T00:04:26.434Z,98290.55
2019-04-06T00:07:13.693Z,98294.41
2019-04-06T00:09:46.781Z,98295.42
2019-04-06T00:12:14.634Z,98291.95
2019-04-06T00:14:42.386Z,98281.23
2019-04-06T00:17:10.193Z,98279.31
2019-04-06T00:19:37.927Z,98279.26
2019-04-06T00:22:05.716Z,98276.21
2019-04-06T00:24:33.748Z,98279.05
2019-04-06T00:27:21.058Z,98272.50
2019-04-06T00:29:53.921Z,98274.29
2019-04-06T00:32:31.912Z,98272.80
2019-04-06T00:34:59.714Z,98271.34
2019-04-06T00:37:27.612Z,98268.89
2019-04-06T00:39:55.656Z,98266.98
2019-04-06T00:42:23.433Z,98249.03
2019-04-06T00:44:51.321Z,98278.00
2019-04-06T00:47:19.098Z,98276.20
2019-04-06T00:49:46.998Z,98279.63
2019-04-06T00:52:14.800Z,98275.98
2019-04-06T00:54:42.635Z,98285.36
2019-04-06T00:57:10.457Z,98286.31
2019-04-06T00:59:38.223Z,98283.84
2019-04-06T01:02:09.911Z,98277.40
2019-04-06T01:04:37.674Z,98281.52
2019-04-06T01:07:05.514Z,98280.92
2019-04-06T01:09:33.329Z,98271.09
2019-04-06T01:12:01.131Z,98268.30
2019-04-06T01:14:28.862Z,98267.11
2019-04-06T01:16:56.598Z,98262.61
2019-04-06T01:19:24.384Z,98272.85
2019-04-06T01:21:52.227Z,98272.64
2019-04-06T01:24:19.986Z,98276.39
2019-04-06T01:26:47.762Z,98274.47
2019-04-06T01:29:15.601Z,98276.19
2019-04-06T01:31:43.785Z,98275.42
2019-04-06T01:34:11.634Z,98269.86
2019-04-06T01:36:39.436Z,98279.59
2019-04-06T01:39:07.282Z,98274.55
2019-04-06T01:41:35.280Z,98273.41
2019-04-06T01:44:03.116Z,98278.47
2019-04-06T01:46:30.917Z,98278.09
2019-04-06T01:48:58.692Z,98277.14
2019-04-06T01:51:26.586Z,98277.91
2019-04-06T01:53:54.342Z,98275.52
2019-04-06T01:56:22.101Z,98266.97
2019-04-06T01:58:49.862Z,98272.20
2019-04-06T02:01:31.362Z,98263.09
2019-04-06T02:03:59.138Z,98259.98
2019-04-06T02:06:26.883Z,98265.78
2019-04-06T02:08:54.757Z,98259.61
2019-04-06T02:11:22.555Z,98264.48
2019-04-06T02:13:50.268Z,98258.59
2019-04-06T02:16:18.063Z,98268.83
2019-04-06T02:18:45.780Z,98259.20
2019-04-06T02:21:13.620Z,98257.20
2019-04-06T02:23:41.444Z,98254.89
2019-04-06T02:26:09.351Z,98268.64
2019-04-06T02:28:37.171Z,98266.17
2019-04-06T02:31:16.241Z,98265.19
2019-04-06T02:33:57.609Z,98272.67
2019-04-06T02:36:45.135Z,98276.95
2019-04-06T02:39:35.378Z,98278.05
2019-04-06T02:42:10.421Z,98272.25
2019-04-06T02:44:38.213Z,98276.11
2019-04-06T02:47:05.998Z,98270.80
2019-04-06T02:49:33.751Z,98276.81
2019-04-06T02:52:01.591Z,98280.80
2019-04-06T02:54:29.430Z,98279.67
2019-04-06T02:56:57.274Z,98274.46
2019-04-06T02:59:25.135Z,98277.61
2019-04-06T03:01:52.933Z,98280.00
2019-04-06T03:04:20.740Z,98277.27
2019-04-06T03:06:48.556Z,98281.13
2019-04-06T03:09:16.318Z,98282.53
2019-04-06T03:11:44.182Z,98273.02
2019-04-06T03:14:11.976Z,98274.97
2019-04-06T03:16:39.781Z,98273.16
2019-04-06T03:19:07.780Z,98274.86
2019-04-06T03:21:36.002Z,98266.27
2019-04-06T03:24:03.878Z,98267.17
2019-04-06T03:26:31.669Z,98269.30
2019-04-06T03:28:59.459Z,98268.42
2019-04-06T03:31:28.699Z,98269.84
2019-04-06T03:33:56.719Z,98264.67
2019-04-06T03:36:24.566Z,98266.45
2019-04-06T03:38:52.560Z,98264.77
2019-04-06T03:41:20.415Z,98273.41
2019-04-06T03:43:48.182Z,98278.23
2019-04-06T03:46:15.947Z,98278.69
2019-04-06T03:48:43.707Z,98282.72
2019-04-06T03:51:12.076Z,98280.83
2019-04-06T03:53:40.069Z,98290.21
2019-04-06T03:56:09.708Z,98281.77
2019-04-06T03:58:37.521Z,98283.75
2019-04-06T04:01:05.420Z,98281.67
2019-04-06T04:03:33.337Z,98287.53
2019-04-06T04:06:01.118Z,98291.38
2019-04-06T04:08:28.833Z,98288.86
2019-04-06T04:10:56.991Z,98282.54
2019-04-06T04:13:25.415Z,98285.73
2019-04-06T04:15:56.398Z,98287.02
2019-04-06T04:18:22.824Z,98288.78
2019-04-06T04:20:50.823Z,98286.83
2019-04-06T04:23:18.751Z,98291.36
2019-04-06T04:25:46.759Z,98287.73
2019-04-06T04:28:14.517Z,98289.75
2019-04-06T04:30:42.347Z,98293.09
2019-04-06T04:33:10.155Z,98290.89
2019-04-06T04:35:38.227Z,98297.83
2019-04-06T04:38:06.102Z,98302.45
2019-04-06T04:40:33.871Z,98305.96
2019-04-06T04:43:01.681Z,98312.34
2019-04-06T04:45:29.466Z,98316.16
2019-04-06T04:47:57.272Z,98321.11
2019-04-06T04:50:25.167Z,98318.13
2019-04-06T04:52:52.961Z,98324.45
2019-04-06T04:55:20.727Z,98326.62
2019-04-06T04:57:48.577Z,98333.60
2019-04-06T05:00:16.680Z,98340.67
2019-04-06T05:02:44.489Z,98340.53
2019-04-06T05:05:13.040Z,98333.85
2019-04-06T05:07:40.787Z,98339.47
2019-04-06T05:10:09.759Z,98339.70
2019-04-06T05:12:37.551Z,98341.08
2019-04-06T05:15:08.252Z,98347.73
2019-04-06T05:17:36.244Z,98342.09
2019-04-06T05:20:06.014Z,98345.32
2019-04-06T05:22:33.783Z,98341.38
2019-04-06T05:25:01.584Z,98347.16
2019-04-06T05:27:29.347Z,98348.42
2019-04-06T05:29:57.151Z,98347.33
2019-04-06T05:32:24.943Z,98354.20
2019-04-06T05:34:52.732Z,98348.53
2019-04-06T05:37:20.546Z,98360.64
2019-04-06T05:39:48.375Z,98361.95
2019-04-06T05:42:16.283Z,98367.11
2019-04-06T05:44:44.148Z,98365.13
2019-04-06T05:47:11.998Z,98367.00
2019-04-06T05:49:39.753Z,98368.34
2019-04-06T05:52:07.526Z,98369.32
2019-04-06T05:54:35.483Z,98370.03
2019-04-06T05:57:03.492Z,98368.75
2019-04-06T05:59:31.368Z,98376.64
2019-04-06T06:01:59.094Z,98373.77
2019-04-06T06:04:27.073Z,98378.59
2019-04-06T06:06:54.845Z,98374.56
2019-04-06T06:09:22.695Z,98377.32
2019-04-06T06:11:50.552Z,98372.34
2019-04-06T06:14:18.292Z,98382.47
2019-04-06T06:16:46.082Z,98381.36
2019-04-06T06:19:13.818Z,98388.66
2019-04-06T06:21:41.691Z,98389.34
2019-04-06T06:24:09.537Z,98391.27
2019-04-06T06:26:37.355Z,98394.08
2019-04-06T06:29:05.197Z,98393.42
2019-04-06T06:31:33.139Z,98394.24
2019-04-06T06:34:00.916Z,98391.68
2019-04-06T06:36:28.917Z,98391.98
2019-04-06T06:38:56.691Z,98387.09
2019-04-06T06:41:24.491Z,98391.75
2019-04-06T06:43:52.293Z,98388.20
2019-04-06T06:46:20.112Z,98389.38
2019-04-06T06:48:48.435Z,98387.83
2019-04-06T06:51:16.296Z,98388.03
2019-04-06T06:53:44.319Z,98383.32
2019-04-06T06:56:12.247Z,98390.70
2019-04-06T06:58:39.989Z,98393.11
2019-04-06T07:01:07.738Z,98396.30
2019-04-06T07:03:35.508Z,98391.45
2019-04-06T07:06:03.332Z,98393.95
2019-04-06T07:08:31.152Z,98394.42
2019-04-06T07:10:59.200Z,98396.85
2019-04-06T07:13:27.009Z,98394.41
2019-04-06T07:15:54.771Z,98402.58
2019-04-06T07:18:22.557Z,98403.03
2019-04-06T07:20:50.523Z,98401.55
2019-04-06T07:23:18.337Z,98398.66
2019-04-06T07:25:56.653Z,98394.94
2019-04-06T07:28:15.755Z,98390.69
2019-04-06T07:30:43.539Z,98389.45
2019-04-06T07:33:11.286Z,98387.67
2019-04-06T07:35:39.222Z,98381.25
2019-04-06T07:38:07.009Z,98385.34
2019-04-06T07:41:05.347Z,98380.17
2019-04-06T07:43:33.072Z,98384.92
2019-04-06T07:46:00.876Z,98389.80
2019-04-06T07:48:29.125Z,98388.72
2019-04-06T07:51:16.671Z,98393.47
2019-04-06T07:53:44.457Z,98390.33
2019-04-06T07:56:12.492Z,98383.63
2019-04-06T07:58:48.682Z,98388.13
2019-04-06T08:01:10.440Z,98382.17
2019-04-06T08:03:38.243Z,98372.09
2019-04-06T08:06:06.047Z,98376.20
2019-04-06T08:08:33.809Z,98396.08
2019-04-06T08:11:01.585Z,98360.22
2019-04-06T08:13:29.371Z,98361.66
2019-04-06T08:15:57.187Z,98373.38
2019-04-06T08:18:24.942Z,98372.92
2019-04-06T08:21:00.342Z,98361.46
2019-04-06T08:23:28.179Z,98367.14
2019-04-06T08:25:56.363Z,98370.97
2019-04-06T08:28:24.231Z,98363.30
2019-04-06T08:30:52.018Z,98361.56
2019-04-06T08:33:19.831Z,98354.05
2019-04-06T08:35:47.609Z,98357.42
2019-04-06T08:38:15.471Z,98345.03
2019-04-06T08:40:43.286Z,98347.87
2019-04-06T08:43:11.057Z,98338.28
2019-04-06T08:45:38.860Z,98332.87
2019-04-06T08:48:06.629Z,98334.23
2019-04-06T08:50:34.779Z,98324.55
2019-04-06T08:53:02.514Z,98322.67
2019-04-06T08:55:30.747Z,98304.92
2019-04-06T08:57:58.514Z,98320.91
2019-04-06T09:00:31.764Z,98285.22
2019-04-06T09:02:59.515Z,98314.36
2019-04-06T09:05:27.339Z,98314.62
2019-04-06T09:07:55.128Z,98314.68
2019-04-06T09:10:23.164Z,98291.96
2019-04-06T09:12:50.927Z,98288.74
2019-04-06T09:15:18.708Z,98312.59
2019-04-06T09:17:46.532Z,98319.41
2019-04-06T09:20:14.505Z,98310.67
2019-04-06T09:22:42.292Z,98304.81
2019-04-06T09:25:10.249Z,98295.73
2019-04-06T09:27:38.049Z,98290.65
2019-04-06T09:30:06.322Z,98282.09
2019-04-06T09:32:34.109Z,98257.69
2019-04-06T09:35:01.938Z,98269.65
2019-04-06T09:37:29.688Z,98272.47
2019-04-06T09:39:57.497Z,98271.81
2019-04-06T09:42:25.226Z,98264.45
2019-04-06T09:44:58.645Z,98260.89
2019-04-06T09:47:34.134Z,98258.98
2019-04-06T09:50:20.551Z,98246.31
2019-04-06T09:53:08.858Z,98244.30
2019-04-06T09:55:43.274Z,98244.80
2019-04-06T09:58:33.481Z,98240.03
2019-04-06T10:01:37.289Z,98235.27
2019-04-06T10:04:16.509Z,98238.11
2019-04-06T10:07:06.680Z,98221.40
2019-04-06T10:09:48.345Z,98220.57
2019-04-06T10:12:29.087Z,98223.67
2019-04-06T10:15:35.036Z,98228.98
2019-04-06T10:18:13.718Z,98235.63
2019-04-06T10:20:59.741Z,98231.63
2019-04-06T10:23:49.930Z,98227.48
2019-04-06T10:26:52.714Z,98227.22
2019-04-06T10:29:50.253Z,98218.05
2019-04-06T10:32:37.849Z,98218.30
2019-04-06T10:35:17.932Z,98218.83
2019-04-06T10:37:55.019Z,98213.50
2019-04-06T10:40:29.963Z,98213.73
2019-04-06T10:43:21.070Z,98214.48
2019-04-06T10:46:23.456Z,98222.40
2019-04-06T10:49:13.893Z,98223.22
2019-04-06T10:52:01.291Z,98210.84
2019-04-06T10:54:47.271Z,98209.05
2019-04-06T10:57:29.431Z,98197.25
2019-04-06T11:00:11.950Z,98202.20
2019-04-06T11:02:49.284Z,98186.58
2019-04-06T11:05:39.617Z,98190.15
2019-04-06T11:08:33.181Z,98204.78
2019-04-06T11:11:20.814Z,98201.55
2019-04-06T11:14:20.313Z,98191.17
2019-04-06T11:17:06.214Z,98166.20
2019-04-06T11:19:46.434Z,98173.98
2019-04-06T11:22:36.566Z,98172.27
2019-04-06T11:25:24.361Z,98161.55
2019-04-06T11:28:14.571Z,98162.52
2019-04-06T11:31:03.253Z,98164.27
2019-04-06T11:33:47.721Z,98149.27
2019-04-06T11:36:31.060Z,98148.91
2019-04-06T11:39:37.016Z,98153.84
2019-04-06T11:42:14.324Z,98157.34
2019-04-06T11:44:51.766Z,98152.85
2019-04-06T11:47:57.463Z,98135.39
2019-04-06T11:51:05.277Z,98132.72
2019-04-06T11:54:07.911Z,98144.59
2019-04-06T11:57:04.450Z,98153.01
2019-04-06T11:59:52.451Z,98163.23
2019-04-06T12:02:26.035Z,98148.92
2019-04-06T12:05:10.384Z,98154.44
2019-04-06T12:08:00.537Z,98153.94
2019-04-06T12:10:50.941Z,98132.95
2019-04-06T12:13:36.971Z,98132.89
2019-04-06T12:16:15.595Z,98131.48
2019-04-06T12:19:03.227Z,98114.62
2019-04-06T12:21:43.017Z,98099.02
2019-04-06T12:24:40.201Z,98111.71
2019-04-06T12:27:30.713Z,98113.33
2019-04-06T12:30:08.821Z,98104.73
2019-04-06T12:33:01.996Z,98098.89
2019-04-06T12:35:48.234Z,98091.43
2019-04-06T12:38:27.007Z,98080.14
2019-04-06T12:41:46.199Z,98081.42
2019-04-06T12:44:26.980Z,98076.59
2019-04-06T12:47:23.769Z,98081.33
2019-04-06T12:50:02.739Z,98081.80
2019-04-06T12:52:49.215Z,98076.58
2019-04-06T12:55:38.376Z,98075.41
2019-04-06T12:58:24.765Z,98071.99
2019-04-06T13:01:21.528Z,98075.70
2019-04-06T13:04:07.548Z,98074.97
2019-04-06T13:07:06.960Z,98077.73
2019-04-06T13:09:52.967Z,98077.70
2019-04-06T13:12:40.409Z,98069.30
2019-04-06T13:15:22.812Z,98087.86
2019-04-06T13:18:13.013Z,98065.45
2019-04-06T13:21:00.643Z,98051.78
2019-04-06T13:23:45.305Z,98051.98
2019-04-06T13:26:39.031Z,98047.05
2019-04-06T13:29:15.734Z,98045.22
2019-04-06T13:32:09.252Z,98039.69
2019-04-06T13:35:14.712Z,98023.23
2019-04-06T13:38:20.132Z,98037.78
2019-04-06T13:41:06.537Z,98027.69
2019-04-06T13:43:43.451Z,98022.17
2019-04-06T13:46:21.860Z,98015.49
2019-04-06T13:49:09.808Z,98027.34
2019-04-06T13:51:57.422Z,98030.81
2019-04-06T13:54:50.747Z,98026.84
2019-04-06T13:57:31.334Z,98021.61
2019-04-06T14:00:15.345Z,98028.42
2019-04-06T14:02:53.685Z,98027.16
2019-04-06T14:05:50.091Z,98018.33
2019-04-06T14:08:42.366Z,98011.73
2019-04-06T14:11:29.848Z,98018.78
2019-04-06T14:14:16.021Z,98019.25
2019-04-06T14:17:06.550Z,98020.77
2019-04-06T14:19:47.548Z,98019.10
2019-04-06T14:22:24.696Z,98014.09
2019-04-06T14:25:12.152Z,98014.47
2019-04-06T14:28:09.408Z,98017.33
2019-04-06T14:31:09.739Z,98011.65
2019-04-06T14:33:55.438Z,98014.56
2019-04-06T14:36:47.302Z,98017.04
2019-04-06T14:39:46.883Z,98020.02
2019-04-06T14:42:52.853Z,98005.91
2019-04-06T14:45:58.744Z,98005.17
2019-04-06T14:48:46.496Z,98008.17
2019-04-06T14:51:25.891Z,98001.88
2019-04-06T14:54:16.221Z,98007.60
2019-04-06T14:56:56.125Z,98008.11
2019-04-06T14:59:42.323Z,98010.30
2019-04-06T15:02:39.129Z,98004.61
2019-04-06T15:05:22.492Z,98009.24
2019-04-06T15:08:15.445Z,98007.15
2019-04-06T15:11:01.928Z,98017.23
2019-04-06T15:13:38.596Z,98014.61
2019-04-06T15:16:29.041Z,98018.73
2019-04-06T15:19:11.507Z,98018.96
2019-04-06T15:22:09.152Z,98018.30
2019-04-06T15:24:49.967Z,98019.80
2019-04-06T15:27:31.698Z,98010.88
2019-04-06T15:30:34.665Z,98006.59
2019-04-06T15:33:31.170Z,98006.81
2019-04-06T15:36:27.494Z,98008.55
2019-04-06T15:39:23.892Z,97998.77
2019-04-06T15:42:02.871Z,97996.63
2019-04-06T15:44:41.541Z,97994.70
2019-04-06T15:47:35.310Z,97985.92
2019-04-06T15:50:28.403Z,97989.97
2019-04-06T15:53:02.699Z,97998.33
2019-04-06T15:55:50.196Z,97992.11
2019-04-06T15:58:22.661Z,97986.35
2019-04-06T16:00:59.474Z,97964.72
2019-04-06T16:03:52.683Z,97985.62
2019-04-06T16:06:38.733Z,97986.34
2019-04-06T16:09:38.119Z,97986.24
2019-04-06T16:12:50.812Z,97994.53
2019-04-06T16:15:26.196Z,97992.80
2019-04-06T16:18:09.921Z,97994.61
2019-04-06T16:21:06.482Z,97990.31
2019-04-06T16:23:43.954Z,97988.09
2019-04-06T16:26:19.757Z,97987.88
2019-04-06T16:28:58.696Z,97985.97
2019-04-06T16:31:47.327Z,97987.78
2019-04-06T16:34:43.827Z,97993.78
2019-04-06T16:37:27.112Z,97997.22
2019-04-06T16:40:16.004Z,97995.44
2019-04-06T16:43:06.943Z,97998.23
2019-04-06T16:45:47.615Z,97994.14
2019-04-06T16:48:33.641Z,97995.86
2019-04-06T16:51:30.131Z,97998.64
2019-04-06T16:54:16.383Z,98005.81
2019-04-06T16:57:02.686Z,98007.55
2019-04-06T16:59:41.871Z,98011.48
2019-04-06T17:02:35.326Z,98010.63
2019-04-06T17:05:16.051Z,98005.59
2019-04-06T17:08:10.828Z,98008.86
2019-04-06T17:10:51.734Z,98004.16
2019-04-06T17:13:39.877Z,98013.54
2019-04-06T17:16:24.029Z,98007.75
2019-04-06T17:18:58.256Z,98010.63
2019-04-06T17:21:40.235Z,98008.38
2019-04-06T17:24:26.774Z,98012.77
2019-04-06T17:27:03.977Z,98007.94
2019-04-06T17:29:49.698Z,98017.28
2019-04-06T17:32:36.023Z,98017.48
2019-04-06T17:35:09.340Z,98013.47
2019-04-06T17:38:08.924Z,98016.25
2019-04-06T17:40:53.637Z,98022.09
2019-04-06T17:43:53.347Z,98024.46
2019-04-06T17:46:39.343Z,98030.05
2019-04-06T17:49:42.078Z,98029.25
2019-04-06T17:52:26.680Z,98033.46
2019-04-06T17:55:12.523Z,98038.03
2019-04-06T17:57:45.928Z,98038.82
2019-04-06T18:00:32.000Z,98040.81
2019-04-06T18:03:22.500Z,98044.34
2019-04-06T18:06:09.049Z,98040.31
2019-04-06T18:09:06.456Z,98040.94
2019-04-06T18:11:54.528Z,98043.45
2019-04-06T18:14:22.430Z,98040.47
2019-04-06T18:16:50.520Z,98041.21
2019-04-06T18:19:18.578Z,98044.28
2019-04-06T18:21:46.342Z,98048.56
2019-04-06T18:24:14.596Z,98054.64
2019-04-06T18:26:42.754Z,98055.16
2019-04-06T18:29:10.805Z,98062.70
2019-04-06T18:32:03.953Z,98065.89
2019-04-06T18:34:32.153Z,98073.41
2019-04-06T18:37:22.374Z,98073.00
2019-04-06T18:39:56.894Z,98076.14
2019-04-06T18:42:27.900Z,98075.83
2019-04-06T18:44:55.659Z,98076.72
2019-04-06T18:47:23.469Z,98074.55
2019-04-06T18:49:52.467Z,98075.33
2019-04-06T18:52:20.471Z,98077.55
2019-04-06T18:54:48.373Z,98082.97
2019-04-06T18:57:16.420Z,98080.47
2019-04-06T18:59:44.793Z,98084.45
2019-04-06T19:02:13.142Z,98082.42
2019-04-06T19:04:41.055Z,98085.02
2019-04-06T19:07:09.154Z,98087.45
2019-04-06T19:09:37.025Z,98087.52
2019-04-06T19:12:05.341Z,98071.43
2019-04-06T19:14:34.253Z,98087.81
2019-04-06T19:17:02.452Z,98093.56
2019-04-06T19:19:30.782Z,98092.01
2019-04-06T19:21:59.067Z,98089.90
2019-04-06T19:24:27.175Z,98087.63
2019-04-06T19:27:15.656Z,98094.10
2019-04-06T19:29:34.770Z,98088.23
2019-04-06T19:32:02.917Z,98099.41
2019-04-06T19:34:31.471Z,98096.43
2019-04-06T19:36:59.256Z,98099.07
2019-04-06T19:39:27.389Z,98099.64
2019-04-06T19:41:55.531Z,98096.59
2019-04-06T19:44:24.911Z,98098.97
2019-04-06T19:46:52.963Z,98101.31
2019-04-06T19:49:20.845Z,98099.98
2019-04-06T19:51:54.441Z,98100.51
2019-04-06T19:54:22.394Z,98102.11
2019-04-06T19:56:57.557Z,98105.17
2019-04-06T19:59:25.467Z,98104.72
2019-04-06T20:01:53.666Z,98105.34
2019-04-06T20:04:21.831Z,98101.25
2019-04-06T20:06:50.451Z,98105.83
2019-04-06T20:09:18.661Z,98106.61
2019-04-06T20:11:46.600Z,98105.91
2019-04-06T20:14:14.648Z,98113.92
2019-04-06T20:16:43.060Z,98109.30
2019-04-06T20:19:11.155Z,98113.22
2019-04-06T20:21:44.044Z,98111.94
2019-04-06T20:24:11.869Z,98109.35
2019-04-06T20:26:40.084Z,98111.74
2019-04-06T20:29:08.020Z,98112.53
2019-04-06T20:31:36.245Z,98116.54
2019-04-06T20:34:05.312Z,98115.41
2019-04-06T20:36:34.034Z,98125.56
2019-04-06T20:39:04.104Z,98120.83
2019-04-06T20:41:37.094Z,98124.03
2019-04-06T20:44:05.416Z,98126.54
2019-04-06T20:46:34.027Z,98127.69
2019-04-06T20:49:02.167Z,98125.22
2019-04-06T20:51:30.217Z,98125.50
2019-04-06T20:53:58.009Z,98132.57
2019-04-06T20:56:26.100Z,98136.20
2019-04-06T20:58:54.193Z,98137.65
2019-04-06T21:01:27.684Z,98143.95
2019-04-06T21:04:01.514Z,98146.36
2019-04-06T21:06:25.574Z,98147.58
2019-04-06T21:08:53.771Z,98149.41
2019-04-06T21:11:21.666Z,98148.51
2019-04-06T21:13:49.580Z,98151.70
2019-04-06T21:16:17.918Z,98156.86
2019-04-06T21:18:45.823Z,98155.63
2019-04-06T21:21:13.624Z,98150.27
2019-04-06T21:23:41.873Z,98152.91
2019-04-06T21:26:10.848Z,98152.58
2019-04-06T21:28:39.030Z,98155.47
2019-04-06T21:31:07.706Z,98152.95
2019-04-06T21:33:37.486Z,98160.45
2019-04-06T21:36:06.012Z,98160.41
2019-04-06T21:38:34.361Z,98163.50
2019-04-06T21:41:02.834Z,98162.28
2019-04-06T21:43:31.126Z,98158.81
2019-04-06T21:45:59.959Z,98163.09
2019-04-06T21:48:27.931Z,98162.50
2019-04-06T21:51:02.894Z,98162.73
2019-04-06T21:53:31.019Z,98165.39
2019-04-06T21:56:03.226Z,98161.42
2019-04-06T21:58:29.026Z,98166.31
2019-04-06T22:00:57.871Z,98169.95
2019-04-06T22:03:25.967Z,98167.47
2019-04-06T22:05:54.079Z,98172.19
2019-04-06T22:08:21.949Z,98171.05
2019-04-06T22:10:50.145Z,98168.23
2019-04-06T22:13:18.612Z,98173.94
2019-04-06T22:15:47.313Z,98177.38
2019-04-06T22:18:15.471Z,98170.14
2019-04-06T22:20:43.859Z,98167.95
2019-04-06T22:23:11.984Z,98174.01
2019-04-06T22:25:40.132Z,98175.79
2019-04-06T22:28:08.838Z,98156.20
2019-04-06T22:30:38.337Z,98175.53
2019-04-06T22:33:07.017Z,98179.42
2019-04-06T22:35:35.002Z,98180.81
2019-04-06T22:38:02.971Z,98179.00
2019-04-06T22:40:33.507Z,98178.51
2019-04-06T22:43:03.048Z,98178.80
2019-04-06T22:45:32.280Z,98174.42
2019-04-06T22:48:00.394Z,98172.52
2019-04-06T22:50:28.130Z,98175.02
2019-04-06T22:52:56.150Z,98173.27
2019-04-06T22:55:24.221Z,98169.65
2019-04-06T22:57:52.203Z,98169.84
2019-04-06T23:00:39.881Z,98170.76
2019-04-06T23:03:34.303Z,98173.64
2019-04-06T23:06:05.477Z,98172.19
2019-04-06T23:08:33.866Z,98178.69
2019-04-06T23:11:02.545Z,98175.47
2019-04-06T23:13:31.254Z,98177.47
2019-04-06T23:15:59.652Z,98184.35
2019-04-06T23:18:27.532Z,98185.92
2019-04-06T23:20:56.498Z,98181.59
2019-04-06T23:23:24.679Z,98177.59
2019-04-06T23:25:52.870Z,98179.48
2019-04-06T23:28:20.820Z,98185.67
2019-04-06T23:30:48.930Z,98184.03
2019-04-06T23:33:16.780Z,98176.78
2019-04-06T23:35:44.948Z,98184.45
2019-04-06T23:38:13.282Z,98185.25
2019-04-06T23:40:42.060Z,98185.00
2019-04-06T23:43:10.022Z,98187.22
2019-04-06T23:45:38.080Z,98190.94
2019-04-06T23:48:06.083Z,98187.84
2019-04-06T23:50:33.931Z,98189.84
2019-04-06T23:53:01.692Z,98180.20
2019-04-06T23:55:29.970Z,98189.75
2019-04-06T23:57:58.076Z,98183.91
